createdAt,value
2022-11-25T10:23:28.890Z,23
2022-11-25T10:33:29.872Z,10.7
2022-11-25T10:43:31.963Z,11.2
2022-11-25T10:53:30.939Z,10.6
2022-11-25T11:03:31.400Z,11.2
2022-11-25T11:23:32.510Z,10.9
2022-11-25T11:33:33.388Z,11.3
2022-11-25T11:53:34.535Z,11.3
2022-11-25T12:13:35.033Z,11.6
2022-11-25T12:13:40.200Z,11.6
2022-11-25T12:23:40.933Z,11.7
2022-11-25T12:33:41.439Z,11.6
2022-11-25T12:53:42.471Z,11.8
2022-11-25T13:03:42.504Z,11.5
2022-11-25T13:13:43.527Z,11.6
2022-11-25T13:23:48.733Z,11.5
2022-11-25T13:33:44.704Z,11.4
2022-11-25T13:43:44.897Z,11.6
2022-11-25T13:53:45.823Z,11.5
2022-11-25T14:03:46.815Z,11.3
2022-11-25T14:13:47.652Z,11.3
2022-11-25T14:23:48.194Z,11.3
2022-11-25T14:33:48.851Z,11.2
2022-11-25T14:53:49.946Z,11.1
2022-11-25T15:03:50.505Z,11.2
2022-11-25T15:23:51.823Z,11
2022-11-25T15:43:53.293Z,11
2022-11-25T15:53:53.409Z,10.8
2022-11-25T16:03:53.767Z,10.6
2022-11-25T16:13:54.701Z,10.5
2022-11-25T16:23:55.002Z,10.4
2022-11-25T16:33:55.113Z,10.5
2022-11-25T16:43:58.418Z,10.5
2022-11-25T16:53:56.785Z,10.5
2022-11-25T17:03:57.671Z,10.5
2022-11-25T17:23:59.557Z,10.4
2022-11-25T17:34:00.019Z,10.5
2022-11-25T17:54:00.860Z,10.2
2022-11-25T18:14:01.588Z,10
2022-11-25T18:24:02.132Z,10
2022-11-25T18:44:03.402Z,9.8
2022-11-25T18:54:03.441Z,9.8
2022-11-25T20:04:07.919Z,9.6
2022-11-25T20:14:08.883Z,9.6
2022-11-25T20:34:10.359Z,9.4
2022-11-25T20:44:11.151Z,9.1
2022-11-25T21:24:13.745Z,8.5
2022-11-25T21:34:13.803Z,8.3
2022-11-25T21:44:14.814Z,8.2
2022-11-25T21:54:15.488Z,8.1
2022-11-25T22:04:16.482Z,7.9
2022-11-25T22:14:16.544Z,7.7
2022-11-25T22:24:23.657Z,7.6
2022-11-25T22:34:17.615Z,7.6
2022-11-25T22:44:17.737Z,7.5
2022-11-25T22:54:18.739Z,7.4
